createdAt,value
2022-10-31T00:03:00.671Z,4.75
2022-10-31T00:06:08.990Z,4.50
2022-10-31T00:09:17.250Z,4.80
2022-10-31T00:12:22.964Z,5.30
2022-10-31T00:15:29.176Z,4.83
2022-10-31T00:18:35.785Z,4.90
2022-10-31T00:21:42.577Z,4.67
2022-10-31T00:24:49.081Z,4.12
2022-10-31T00:27:54.880Z,4.55
2022-10-31T00:31:01.094Z,5.20
2022-10-31T00:34:07.229Z,5.00
2022-10-31T00:37:13.556Z,5.58
2022-10-31T00:40:23.158Z,5.20
2022-10-31T00:43:29.407Z,6.30
2022-10-31T00:46:35.874Z,4.97
2022-10-31T00:49:41.878Z,5.72
2022-10-31T00:52:47.400Z,6.25
2022-10-31T00:55:53.228Z,5.65
2022-10-31T00:58:59.354Z,6.50
2022-10-31T01:02:04.270Z,6.12
2022-10-31T01:05:10.607Z,6.50
2022-10-31T01:08:17.842Z,5.87
2022-10-31T01:11:30.414Z,6.42
2022-10-31T01:14:38.026Z,7.22
2022-10-31T01:17:44.707Z,6.75
2022-10-31T01:20:50.636Z,7.00
2022-10-31T01:23:57.564Z,7.15
2022-10-31T01:27:04.123Z,7.10
2022-10-31T01:30:09.415Z,7.37
2022-10-31T01:33:16.071Z,7.30
2022-10-31T01:36:42.531Z,7.62
2022-10-31T01:39:48.247Z,7.65
2022-10-31T01:42:54.625Z,7.08
2022-10-31T01:46:03.403Z,6.67
2022-10-31T01:49:10.035Z,8.08
2022-10-31T01:52:19.954Z,7.50
2022-10-31T01:55:35.840Z,7.83
2022-10-31T01:58:43.755Z,7.85
2022-10-31T02:01:49.299Z,7.75
2022-10-31T02:04:55.593Z,7.37
2022-10-31T02:08:44.760Z,7.28
2022-10-31T02:11:53.244Z,7.97
2022-10-31T02:14:59.857Z,6.65
2022-10-31T02:18:05.253Z,6.45
2022-10-31T02:21:36.137Z,5.97
2022-10-31T02:25:21.135Z,7.40
2022-10-31T02:29:05.869Z,6.75
2022-10-31T02:32:26.850Z,7.80
2022-10-31T02:35:43.189Z,6.15
2022-10-31T02:39:07.785Z,5.53
2022-10-31T02:42:39.541Z,6.97
2022-10-31T02:46:08.078Z,4.87
2022-10-31T02:49:11.421Z,5.42
2022-10-31T02:52:18.033Z,5.45
2022-10-31T02:55:43.500Z,6.37
2022-10-31T02:58:53.175Z,5.10
2022-10-31T03:02:19.011Z,4.47
2022-10-31T03:06:01.639Z,5.40
2022-10-31T03:09:23.426Z,5.67
2022-10-31T03:12:25.742Z,5.45
2022-10-31T03:15:42.714Z,5.62
2022-10-31T03:18:58.285Z,5.15
2022-10-31T03:22:15.078Z,5.03
2022-10-31T03:25:21.550Z,5.03
2022-10-31T03:28:28.669Z,6.37
2022-10-31T03:31:38.380Z,6.53
2022-10-31T03:34:45.344Z,6.10
2022-10-31T03:37:52.878Z,5.05
2022-10-31T03:41:00.212Z,5.33
2022-10-31T03:44:13.013Z,5.37
2022-10-31T03:47:21.601Z,4.97
2022-10-31T03:50:23.129Z,5.30
2022-10-31T03:53:45.110Z,5.30
2022-10-31T03:56:54.998Z,5.17
2022-10-31T04:00:05.482Z,4.85
2022-10-31T04:03:34.583Z,4.50
2022-10-31T04:06:41.786Z,5.17
2022-10-31T04:09:49.159Z,4.67
2022-10-31T04:12:54.914Z,5.58
2022-10-31T04:16:02.750Z,5.12
2022-10-31T04:19:08.682Z,5.53
2022-10-31T04:22:14.964Z,4.25
2022-10-31T04:25:23.288Z,4.87
2022-10-31T04:28:29.532Z,5.58
2022-10-31T04:31:34.275Z,5.20
2022-10-31T04:34:39.771Z,5.22
2022-10-31T04:37:38.263Z,5.90
2022-10-31T04:40:45.385Z,5.40
2022-10-31T04:44:03.107Z,4.83
2022-10-31T04:47:09.548Z,6.45
2022-10-31T04:50:15.151Z,5.00
2022-10-31T04:53:20.561Z,5.90
2022-10-31T04:56:29.168Z,5.55
2022-10-31T04:59:35.757Z,5.53
2022-10-31T05:02:44.520Z,4.70
2022-10-31T05:05:51.858Z,5.10
2022-10-31T05:08:57.955Z,5.10
2022-10-31T05:12:04.716Z,5.10
2022-10-31T05:15:20.000Z,5.28
2022-10-31T05:18:45.426Z,6.03
2022-10-31T05:22:12.478Z,5.80
2022-10-31T05:25:19.957Z,5.33
2022-10-31T07:56:40.524Z,4.42
2022-10-31T07:59:48.102Z,3.90
2022-10-31T08:03:00.290Z,3.50
2022-10-31T08:06:14.161Z,3.52
2022-10-31T08:09:48.277Z,3.12
2022-10-31T08:13:01.280Z,3.40
2022-10-31T08:16:12.198Z,3.67
2022-10-31T08:22:24.848Z,3.10
2022-10-31T08:25:38.194Z,2.85
2022-10-31T08:28:42.056Z,3.62
2022-10-31T08:35:13.843Z,2.87
2022-10-31T08:38:36.843Z,1.70
2022-10-31T08:41:52.659Z,1.60
2022-10-31T08:44:46.218Z,1.60
2022-10-31T08:47:59.244Z,1.50
2022-10-31T08:51:07.940Z,1.60
2022-10-31T08:54:16.583Z,2.20
2022-10-31T08:57:30.977Z,2.77
2022-10-31T09:00:38.998Z,2.98
2022-10-31T09:03:50.735Z,3.58
2022-10-31T09:07:20.460Z,3.75
2022-10-31T09:10:14.358Z,3.70
2022-10-31T09:13:28.380Z,3.83
2022-10-31T09:20:04.386Z,2.33
2022-10-31T09:23:20.513Z,1.98
2022-10-31T09:26:19.544Z,1.07
2022-10-31T09:36:46.362Z,1.25
2022-10-31T09:39:58.231Z,0.90
2022-10-31T09:43:36.643Z,0.75
2022-10-31T09:47:08.615Z,1.10
2022-10-31T09:50:46.136Z,0.70
2022-10-31T09:54:21.711Z,0.80
2022-10-31T09:57:34.582Z,0.88
2022-10-31T10:00:47.635Z,0.95
2022-10-31T10:04:35.661Z,0.50
2022-10-31T10:08:00.010Z,0.72
2022-10-31T10:15:10.148Z,0.65
2022-10-31T10:18:39.126Z,0.60
2022-10-31T10:21:56.514Z,0.90
2022-10-31T10:25:32.216Z,0.70
2022-10-31T10:28:49.943Z,0.35
2022-10-31T10:31:56.772Z,0.70
2022-10-31T10:35:06.576Z,0.70
2022-10-31T10:41:29.405Z,0.78
2022-10-31T10:44:52.340Z,0.70
2022-10-31T10:48:03.079Z,0.50
2022-10-31T10:51:25.439Z,0.98
2022-10-31T10:54:47.905Z,0.80
2022-10-31T10:58:14.225Z,0.70
2022-10-31T11:01:30.161Z,1.22
2022-10-31T11:04:49.487Z,0.60
2022-10-31T11:07:55.306Z,1.20
2022-10-31T11:11:00.648Z,0.70
2022-10-31T11:14:20.873Z,0.90
2022-10-31T11:17:39.452Z,2.20
2022-10-31T11:20:50.470Z,0.93
2022-10-31T11:23:57.848Z,0.47
2022-10-31T11:27:05.485Z,1.15
2022-10-31T11:30:20.822Z,0.70
2022-10-31T11:33:43.326Z,1.15
2022-10-31T11:36:46.657Z,1.27
2022-10-31T11:40:00.768Z,0.80
2022-10-31T11:43:06.791Z,0.80
2022-10-31T11:46:13.001Z,0.80
2022-10-31T11:49:18.621Z,1.00
2022-10-31T11:52:36.408Z,0.75
2022-10-31T11:55:49.276Z,0.80
2022-10-31T11:59:16.529Z,0.82
2022-10-31T12:02:34.116Z,0.90
2022-10-31T12:06:01.619Z,1.02
2022-10-31T12:09:08.098Z,1.42
2022-10-31T12:12:40.623Z,1.30
2022-10-31T12:15:51.648Z,1.10
2022-10-31T12:19:06.388Z,1.20
2022-10-31T12:22:20.154Z,0.98
2022-10-31T12:25:32.462Z,1.02
2022-10-31T12:29:04.248Z,0.98
2022-10-31T12:32:14.655Z,0.88
2022-10-31T12:36:10.969Z,1.40
2022-10-31T12:39:52.157Z,0.98
2022-10-31T12:43:38.357Z,1.00
2022-10-31T12:46:58.267Z,1.40
2022-10-31T12:50:57.745Z,1.80
2022-10-31T12:54:27.770Z,1.02
2022-10-31T12:57:45.673Z,1.35
2022-10-31T13:00:51.128Z,1.10
2022-10-31T13:04:12.760Z,1.15
2022-10-31T13:07:21.911Z,1.10
2022-10-31T13:10:39.964Z,0.98
2022-10-31T13:13:59.026Z,1.27
2022-10-31T13:17:04.436Z,1.17
2022-10-31T13:20:22.125Z,1.60
2022-10-31T13:23:50.985Z,0.90
2022-10-31T13:27:00.307Z,0.90
2022-10-31T13:30:17.116Z,1.42
2022-10-31T13:33:25.686Z,1.20
2022-10-31T13:36:56.711Z,1.70
2022-10-31T13:40:28.774Z,1.10
2022-10-31T13:43:47.925Z,1.40
2022-10-31T13:46:54.690Z,2.15
2022-10-31T13:49:59.752Z,2.37
2022-10-31T13:53:06.306Z,1.65
2022-10-31T13:56:36.905Z,1.80
2022-10-31T13:59:47.094Z,2.17
2022-10-31T14:05:56.881Z,2.20
2022-10-31T14:09:06.182Z,2.00
2022-10-31T14:12:15.025Z,2.70
2022-10-31T14:15:38.376Z,1.85
2022-10-31T14:18:54.311Z,2.00
2022-10-31T14:22:01.705Z,3.75
2022-10-31T14:25:08.097Z,3.90
2022-10-31T14:28:14.891Z,2.80
2022-10-31T14:31:45.834Z,2.75
2022-10-31T14:34:59.905Z,2.05
2022-10-31T18:40:07.254Z,3.15
2022-10-31T18:43:12.773Z,3.98
2022-10-31T18:46:21.053Z,4.03
2022-10-31T18:49:29.098Z,4.47
2022-10-31T18:52:34.674Z,4.15
2022-10-31T18:55:43.966Z,5.95
2022-10-31T18:58:48.383Z,5.45
2022-10-31T19:01:54.205Z,6.37
2022-10-31T19:04:54.563Z,6.60
2022-10-31T19:07:59.815Z,6.78
2022-10-31T19:11:05.916Z,7.17
2022-10-31T19:14:13.649Z,6.45
2022-10-31T19:17:20.455Z,7.10
2022-10-31T19:20:27.875Z,6.72
2022-10-31T19:23:34.669Z,7.10
2022-10-31T19:26:41.710Z,7.37
2022-10-31T19:29:49.524Z,6.92
2022-10-31T19:32:54.999Z,6.72
2022-10-31T19:36:01.039Z,7.87
2022-10-31T19:39:07.534Z,7.80
2022-10-31T19:42:13.298Z,10.68
2022-10-31T19:45:20.689Z,7.85
2022-10-31T19:48:25.088Z,7.70
2022-10-31T19:51:34.640Z,7.17
2022-10-31T19:54:39.457Z,12.78
2022-10-31T19:58:01.280Z,7.08
2022-10-31T20:00:56.126Z,6.25
2022-10-31T20:04:01.882Z,7.22
2022-10-31T20:07:09.565Z,5.58
2022-10-31T20:10:15.985Z,4.97
2022-10-31T20:13:22.259Z,5.10
2022-10-31T20:16:27.973Z,5.17
2022-10-31T20:19:33.389Z,5.08
2022-10-31T20:22:39.082Z,5.58
2022-10-31T20:25:44.487Z,5.97
2022-10-31T20:28:50.889Z,5.65
2022-10-31T20:31:56.213Z,6.03
2022-10-31T20:35:03.154Z,5.47
2022-10-31T20:38:02.987Z,5.08
2022-10-31T20:40:55.435Z,6.08
2022-10-31T20:44:01.298Z,5.85
2022-10-31T20:47:07.422Z,5.00
2022-10-31T20:50:14.037Z,5.40
2022-10-31T20:53:19.383Z,4.90
2022-10-31T20:56:31.054Z,4.70
2022-10-31T20:59:37.599Z,5.15
2022-10-31T21:02:43.165Z,5.00
2022-10-31T21:05:50.256Z,4.58
2022-10-31T21:08:57.260Z,5.55
2022-10-31T21:12:05.193Z,4.37
2022-10-31T21:15:11.042Z,5.28
2022-10-31T21:18:17.592Z,4.70
2022-10-31T21:21:32.573Z,5.75
2022-10-31T21:24:37.076Z,5.17
2022-10-31T21:27:42.030Z,5.67
2022-10-31T21:30:48.487Z,4.25
2022-10-31T21:33:55.279Z,4.40
2022-10-31T21:37:01.595Z,4.72
2022-10-31T21:40:07.890Z,4.25
2022-10-31T21:43:13.192Z,4.62
2022-10-31T21:46:23.709Z,4.85
2022-10-31T21:49:29.119Z,4.87
2022-10-31T21:52:27.709Z,4.45
2022-10-31T21:55:14.755Z,4.72
2022-10-31T21:58:06.495Z,4.72
2022-10-31T22:00:52.581Z,4.47
2022-10-31T22:03:45.951Z,4.85
2022-10-31T22:06:51.981Z,2.67
2022-10-31T22:09:58.157Z,3.98
2022-10-31T22:13:05.151Z,3.87
2022-10-31T22:16:17.798Z,4.15
2022-10-31T22:19:27.499Z,3.95
2022-10-31T22:22:34.289Z,4.40
2022-10-31T22:25:40.307Z,3.77
2022-10-31T22:28:47.763Z,3.85
2022-10-31T22:31:59.580Z,3.83
2022-10-31T22:34:59.584Z,4.10
2022-10-31T22:38:05.690Z,4.10
2022-10-31T22:41:12.695Z,3.92
2022-10-31T22:44:19.429Z,3.67
2022-10-31T22:47:25.574Z,3.30
2022-10-31T22:50:31.794Z,3.77
2022-10-31T22:53:37.237Z,4.65
2022-10-31T22:56:47.382Z,4.45
2022-10-31T23:02:57.349Z,3.47
2022-10-31T23:06:14.050Z,3.62
2022-10-31T23:09:21.069Z,3.30
2022-10-31T23:12:44.156Z,3.50
2022-10-31T23:15:52.534Z,3.52
2022-10-31T23:18:58.457Z,3.58
2022-10-31T23:22:08.533Z,3.65
2022-10-31T23:25:14.224Z,3.72
2022-10-31T23:28:19.847Z,4.15
2022-10-31T23:31:26.545Z,4.30
2022-10-31T23:34:32.079Z,3.55
2022-10-31T23:37:39.653Z,3.65
2022-10-31T23:40:47.254Z,4.60
2022-10-31T23:43:55.312Z,3.90
2022-10-31T23:47:02.516Z,3.80
2022-10-31T23:50:08.081Z,3.40
2022-10-31T23:53:15.181Z,3.70
2022-10-31T23:56:22.477Z,3.60
2022-10-31T23:59:30.208Z,3.05
